createdAt,value
2019-02-25T00:00:34.600Z,26.33
2019-02-25T00:03:03.494Z,24.10
2019-02-25T00:05:32.175Z,20.03
2019-02-25T00:08:00.855Z,24.97
2019-02-25T00:10:29.759Z,25.17
2019-02-25T00:12:58.530Z,32.90
2019-02-25T00:15:27.424Z,22.67
2019-02-25T00:17:55.971Z,23.43
2019-02-25T00:20:24.571Z,25.47
2019-02-25T00:22:53.254Z,26.27
2019-02-25T00:25:21.838Z,19.87
2019-02-25T00:27:50.447Z,17.83
2019-02-25T00:30:19.103Z,15.97
2019-02-25T00:32:47.678Z,20.87
2019-02-25T00:35:16.473Z,20.53
2019-02-25T00:37:45.054Z,19.30
2019-02-25T00:40:14.556Z,16.57
2019-02-25T00:42:43.246Z,20.17
2019-02-25T00:45:13.774Z,21.23
2019-02-25T00:47:42.457Z,16.37
2019-02-25T00:50:13.909Z,18.77
2019-02-25T00:52:42.794Z,19.50
2019-02-25T00:55:11.580Z,18.67
2019-02-25T00:57:40.111Z,18.57
2019-02-25T01:00:12.023Z,17.90
2019-02-25T01:02:41.016Z,18.50
2019-02-25T01:05:09.799Z,20.33
2019-02-25T01:07:38.486Z,18.93
2019-02-25T01:10:11.523Z,17.60
2019-02-25T01:12:40.370Z,16.37
2019-02-25T01:15:09.253Z,17.90
2019-02-25T01:17:37.830Z,19.37
2019-02-25T01:20:17.361Z,19.50
2019-02-25T01:22:45.955Z,17.33
2019-02-25T01:25:19.041Z,17.27
2019-02-25T01:27:47.635Z,17.57
2019-02-25T01:30:20.183Z,19.70
2019-02-25T01:32:48.782Z,16.77
2019-02-25T01:35:17.363Z,20.57
2019-02-25T01:37:46.045Z,23.40
2019-02-25T01:40:15.231Z,22.17
2019-02-25T01:42:43.901Z,19.23
2019-02-25T01:45:17.921Z,19.17
2019-02-25T01:47:46.505Z,23.30
2019-02-25T01:50:15.204Z,21.73
2019-02-25T01:52:44.082Z,25.47
2019-02-25T01:55:13.484Z,21.17
2019-02-25T01:57:42.179Z,22.90
2019-02-25T02:00:16.905Z,22.70
2019-02-25T02:02:45.523Z,23.07
2019-02-25T02:05:14.068Z,22.13
2019-02-25T02:07:42.755Z,22.10
2019-02-25T02:10:15.725Z,25.70
2019-02-25T02:12:44.412Z,24.20
2019-02-25T02:15:14.941Z,30.10
2019-02-25T02:17:43.742Z,24.60
2019-02-25T02:20:16.769Z,21.60
2019-02-25T02:22:45.516Z,20.80
2019-02-25T02:25:14.409Z,23.67
2019-02-25T02:27:43.097Z,22.10
2019-02-25T02:30:20.184Z,18.97
2019-02-25T02:32:48.853Z,18.87
2019-02-25T02:35:17.567Z,21.73
2019-02-25T02:37:46.335Z,19.00
2019-02-25T02:40:15.102Z,18.43
2019-02-25T02:42:49.619Z,20.70
2019-02-25T02:45:30.603Z,18.63
2019-02-25T02:48:04.952Z,21.87
2019-02-25T02:50:33.601Z,22.87
2019-02-25T02:53:02.184Z,21.53
2019-02-25T02:55:30.870Z,20.93
2019-02-25T02:57:59.450Z,22.50
2019-02-25T03:00:28.138Z,23.33
2019-02-25T03:02:56.720Z,30.33
2019-02-25T03:05:25.402Z,22.30
2019-02-25T03:07:54.088Z,21.93
2019-02-25T03:10:22.776Z,26.43
2019-02-25T03:12:51.458Z,20.70
2019-02-25T03:15:21.485Z,23.93
2019-02-25T03:17:50.162Z,20.70
2019-02-25T03:20:18.945Z,19.40
2019-02-25T03:22:47.525Z,21.30
2019-02-25T03:25:17.339Z,22.00
2019-02-25T03:27:46.022Z,23.87
2019-02-25T03:30:16.686Z,22.33
2019-02-25T03:32:45.233Z,21.30
2019-02-25T03:35:13.817Z,20.93
2019-02-25T03:37:42.706Z,21.73
2019-02-25T03:40:13.744Z,18.90
2019-02-25T03:42:42.434Z,23.67
2019-02-25T03:45:13.064Z,22.80
2019-02-25T03:47:41.749Z,21.87
2019-02-25T03:50:10.632Z,20.77
2019-02-25T03:52:39.215Z,23.07
2019-02-25T03:55:17.730Z,21.50
2019-02-25T03:57:46.454Z,21.47
2019-02-25T04:00:18.274Z,22.53
2019-02-25T04:02:47.081Z,23.93
2019-02-25T04:05:15.758Z,27.40
2019-02-25T04:07:44.312Z,19.53
2019-02-25T04:10:14.224Z,20.47
2019-02-25T04:12:43.128Z,22.20
2019-02-25T04:15:18.880Z,21.70
2019-02-25T04:17:47.397Z,23.93
2019-02-25T04:20:17.068Z,21.77
2019-02-25T04:22:45.757Z,20.63
2019-02-25T04:25:14.435Z,21.50
2019-02-25T04:27:43.120Z,18.40
2019-02-25T04:30:14.281Z,21.17
2019-02-25T04:32:42.871Z,19.03
2019-02-25T04:35:12.644Z,20.57
2019-02-25T04:37:41.346Z,23.70
2019-02-25T04:40:11.915Z,17.47
2019-02-25T04:42:40.666Z,20.47
2019-02-25T04:45:15.038Z,23.73
2019-02-25T04:47:43.771Z,17.47
2019-02-25T04:50:13.217Z,23.63
2019-02-25T04:52:42.060Z,27.20
2019-02-25T04:55:11.921Z,16.10
2019-02-25T04:57:40.431Z,18.80
2019-02-25T05:00:11.843Z,21.83
2019-02-25T05:02:40.691Z,17.80
2019-02-25T05:05:09.371Z,19.00
2019-02-25T05:07:37.955Z,21.53
2019-02-25T05:10:10.442Z,19.10
2019-02-25T05:12:40.230Z,22.20
2019-02-25T05:15:11.274Z,17.73
2019-02-25T05:17:39.839Z,18.47
2019-02-25T05:20:08.946Z,17.47
2019-02-25T05:22:37.759Z,20.80
2019-02-25T05:25:08.755Z,19.10
2019-02-25T05:27:37.362Z,20.73
2019-02-25T05:30:08.943Z,20.87
2019-02-25T05:32:37.690Z,21.37
2019-02-25T05:35:08.631Z,19.67
2019-02-25T05:37:37.418Z,19.33
2019-02-25T05:40:16.640Z,18.73
2019-02-25T05:42:45.240Z,22.67
2019-02-25T05:45:14.599Z,25.50
2019-02-25T05:47:43.317Z,25.00
2019-02-25T05:50:17.249Z,21.97
2019-02-25T05:52:45.915Z,16.83
2019-02-25T05:55:15.503Z,22.23
2019-02-25T05:57:44.017Z,21.43
2019-02-25T06:00:23.020Z,22.17
2019-02-25T06:02:51.607Z,18.83
2019-02-25T06:05:20.173Z,21.73
2019-02-25T06:07:48.769Z,20.73
2019-02-25T06:10:17.350Z,18.73
2019-02-25T06:12:45.919Z,21.43
2019-02-25T06:15:18.922Z,26.00
2019-02-25T06:17:47.502Z,21.53
2019-02-25T06:20:16.787Z,28.83
2019-02-25T06:22:45.497Z,27.93
2019-02-25T06:25:17.241Z,38.40
2019-02-25T06:27:45.924Z,37.23
2019-02-25T06:30:21.418Z,44.90
2019-02-25T06:32:50.057Z,43.30
2019-02-25T06:35:18.735Z,34.93
2019-02-25T06:37:47.320Z,45.17
2019-02-25T06:40:20.084Z,38.83
2019-02-25T06:42:48.783Z,46.43
2019-02-25T06:45:35.079Z,38.60
2019-02-25T06:48:03.866Z,30.50
2019-02-25T06:50:32.450Z,32.57
2019-02-25T06:53:01.134Z,31.53
2019-02-25T06:55:29.817Z,31.57
2019-02-25T06:57:58.604Z,31.43
2019-02-25T07:00:27.391Z,33.23
2019-02-25T07:02:56.079Z,28.20
2019-02-25T07:05:35.747Z,29.20
2019-02-25T07:08:18.333Z,32.43
2019-02-25T07:10:51.627Z,25.53
2019-02-25T07:13:38.635Z,33.53
2019-02-25T07:16:23.877Z,37.83
2019-02-25T07:19:05.770Z,33.63
2019-02-25T07:21:42.078Z,36.40
2019-02-25T07:24:15.576Z,31.07
2019-02-25T07:26:45.786Z,30.87
2019-02-25T07:29:18.567Z,39.60
2019-02-25T07:31:57.795Z,38.37
2019-02-25T07:34:28.230Z,34.80
2019-02-25T07:37:14.630Z,34.07
2019-02-25T07:39:44.938Z,42.73
2019-02-25T07:42:21.212Z,37.83
2019-02-25T07:45:03.412Z,48.93
2019-02-25T07:47:33.942Z,57.63
2019-02-25T07:50:04.165Z,39.63
2019-02-25T07:52:37.248Z,45.53
2019-02-25T07:55:09.824Z,44.00
2019-02-25T07:57:58.176Z,51.20
2019-02-25T08:00:28.491Z,44.10
2019-02-25T08:03:16.837Z,42.03
2019-02-25T08:05:49.921Z,33.77
2019-02-25T08:08:23.037Z,39.17
2019-02-25T08:10:53.134Z,54.33
2019-02-25T08:13:23.524Z,40.63
2019-02-25T08:15:59.758Z,37.63
2019-02-25T08:18:30.140Z,37.97
2019-02-25T08:21:18.398Z,39.97
2019-02-25T08:23:48.812Z,43.77
2019-02-25T08:26:25.176Z,45.27
2019-02-25T08:28:55.492Z,40.30
2019-02-25T08:31:34.630Z,41.27
2019-02-25T08:34:04.947Z,40.67
2019-02-25T08:37:02.607Z,58.23
2019-02-25T08:39:36.809Z,40.57
2019-02-25T08:42:27.905Z,38.17
2019-02-25T08:45:01.354Z,39.93
2019-02-25T08:47:34.723Z,41.40
2019-02-25T08:50:03.820Z,32.43
2019-02-25T08:52:32.505Z,48.17
2019-02-25T08:55:01.304Z,53.10
2019-02-25T08:57:29.955Z,37.97
2019-02-25T08:59:58.664Z,43.73
2019-02-25T09:02:27.266Z,38.40
2019-02-25T09:04:56.025Z,45.47
2019-02-25T09:07:24.712Z,38.33
2019-02-25T09:09:53.429Z,59.63
2019-02-25T09:12:22.082Z,55.63
2019-02-25T09:14:50.765Z,57.33
2019-02-25T09:17:19.551Z,56.90
2019-02-25T09:19:48.338Z,60.77
2019-02-25T09:22:17.033Z,42.00
2019-02-25T09:24:45.708Z,61.20
2019-02-25T09:27:14.497Z,48.40
2019-02-25T09:29:44.865Z,43.20
2019-02-25T09:32:13.815Z,45.53
2019-02-25T09:34:42.501Z,56.97
2019-02-25T09:37:11.082Z,43.47
2019-02-25T09:39:40.180Z,57.33
2019-02-25T09:42:08.674Z,54.60
2019-02-25T09:44:37.973Z,52.97
2019-02-25T09:47:06.940Z,51.70
2019-02-25T09:49:35.525Z,43.80
2019-02-25T09:52:04.207Z,48.67
2019-02-25T09:54:32.789Z,52.27
2019-02-25T09:57:01.474Z,51.00
2019-02-25T09:59:30.058Z,50.63
2019-02-25T10:01:58.638Z,49.87
2019-02-25T10:04:28.593Z,53.40
2019-02-25T10:07:02.334Z,49.20
2019-02-25T10:09:29.757Z,55.87
2019-02-25T10:11:57.579Z,58.40
2019-02-25T10:14:26.162Z,51.67
2019-02-25T10:16:54.861Z,43.63
2019-02-25T10:19:23.475Z,50.10
2019-02-25T10:21:52.212Z,49.73
2019-02-25T10:24:20.792Z,42.50
2019-02-25T10:26:49.380Z,35.23
2019-02-25T10:29:18.060Z,32.80
2019-02-25T10:31:46.847Z,29.13
2019-02-25T10:34:15.532Z,22.97
2019-02-25T10:36:45.997Z,18.43
2019-02-25T10:39:15.418Z,18.83
2019-02-25T10:41:44.767Z,15.40
2019-02-25T10:44:13.446Z,14.70
2019-02-25T10:46:42.842Z,13.90
2019-02-25T10:49:12.351Z,14.33
2019-02-25T10:51:41.705Z,14.67
2019-02-25T10:54:11.269Z,19.03
2019-02-25T10:56:43.425Z,26.73
2019-02-25T10:59:12.007Z,15.23
2019-02-25T11:01:41.426Z,15.27
2019-02-25T11:04:11.017Z,20.00
2019-02-25T11:06:39.600Z,13.27
2019-02-25T11:09:15.658Z,14.43
2019-02-25T11:11:44.545Z,14.97
2019-02-25T11:14:13.110Z,10.43
2019-02-25T11:16:42.418Z,19.03
2019-02-25T11:19:12.236Z,10.10
2019-02-25T11:21:42.224Z,9.77
2019-02-25T11:24:11.342Z,8.30
2019-02-25T11:26:39.930Z,10.10
2019-02-25T11:29:10.166Z,21.80
2019-02-25T11:31:38.828Z,11.30
2019-02-25T11:34:08.048Z,6.73
2019-02-25T11:36:36.812Z,11.73
2019-02-25T11:39:08.841Z,8.43
2019-02-25T11:41:38.776Z,11.27
2019-02-25T11:44:07.166Z,9.23
2019-02-25T11:46:35.857Z,11.87
2019-02-25T11:49:04.741Z,8.47
2019-02-25T11:51:33.377Z,6.23
2019-02-25T11:54:02.120Z,7.93
2019-02-25T11:56:31.252Z,7.23
2019-02-25T11:58:59.983Z,6.93
2019-02-25T12:01:28.687Z,6.83
2019-02-25T12:03:57.374Z,5.97
2019-02-25T12:06:26.263Z,7.30
2019-02-25T12:08:55.044Z,9.00
2019-02-25T12:11:23.628Z,13.20
2019-02-25T12:13:52.351Z,7.20
2019-02-25T12:16:21.755Z,10.83
2019-02-25T12:18:50.661Z,6.77
2019-02-25T12:21:19.384Z,6.37
2019-02-25T12:23:48.172Z,9.50
2019-02-25T12:26:19.797Z,11.43
2019-02-25T12:28:48.508Z,9.73
2019-02-25T12:31:17.198Z,10.43
2019-02-25T12:33:45.737Z,11.93
2019-02-25T12:36:14.457Z,10.47
2019-02-25T12:38:43.247Z,9.00
2019-02-25T12:41:11.935Z,8.73
2019-02-25T12:43:40.736Z,8.70
2019-02-25T12:46:09.619Z,11.17
2019-02-25T12:48:38.298Z,7.60
2019-02-25T12:51:07.086Z,7.57
2019-02-25T12:53:37.693Z,7.90
2019-02-25T12:56:05.869Z,10.87
2019-02-25T12:58:34.678Z,8.87
2019-02-25T13:01:03.354Z,10.33
2019-02-25T13:03:32.040Z,9.90
2019-02-25T13:06:01.599Z,7.23
2019-02-25T13:08:30.534Z,11.57
2019-02-25T13:10:59.115Z,12.03
2019-02-25T13:13:27.903Z,6.73
2019-02-25T13:15:56.376Z,7.43
2019-02-25T13:18:24.996Z,7.50
2019-02-25T13:20:53.652Z,6.67
2019-02-25T13:23:22.310Z,10.10
2019-02-25T13:25:51.047Z,10.77
2019-02-25T13:28:20.934Z,8.33
2019-02-25T13:30:50.238Z,9.80
2019-02-25T13:33:18.812Z,7.93
2019-02-25T13:35:47.498Z,10.37
2019-02-25T13:38:16.594Z,12.83
2019-02-25T13:40:45.263Z,7.70
2019-02-25T13:43:14.015Z,6.70
2019-02-25T13:45:42.852Z,12.00
2019-02-25T13:48:11.643Z,13.60
2019-02-25T13:50:40.528Z,11.30
2019-02-25T13:53:09.315Z,9.30
2019-02-25T13:55:38.204Z,7.03
2019-02-25T13:58:06.893Z,9.53
2019-02-25T14:00:35.578Z,8.47
2019-02-25T14:03:04.472Z,9.07
2019-02-25T14:05:33.254Z,9.70
2019-02-25T14:08:02.048Z,10.70
2019-02-25T14:10:30.825Z,8.70
2019-02-25T14:12:59.921Z,11.43
2019-02-25T14:15:28.695Z,11.77
2019-02-25T14:17:57.398Z,11.40
2019-02-25T14:20:26.599Z,9.87
2019-02-25T14:22:55.380Z,14.07
2019-02-25T14:25:32.574Z,10.43
2019-02-25T14:28:02.871Z,9.67
2019-02-25T14:30:33.496Z,9.57
2019-02-25T14:33:01.946Z,7.20
2019-02-25T14:35:32.128Z,9.03
2019-02-25T14:38:07.602Z,14.57
2019-02-25T14:40:39.325Z,12.50
2019-02-25T14:43:05.985Z,11.10
2019-02-25T14:45:34.948Z,11.53
2019-02-25T14:48:05.557Z,14.30
2019-02-25T14:50:33.842Z,13.80
2019-02-25T14:53:06.552Z,13.40
2019-02-25T14:55:34.600Z,11.20
2019-02-25T14:58:06.778Z,16.17
2019-02-25T15:00:35.294Z,20.00
2019-02-25T15:03:04.312Z,14.50
2019-02-25T15:05:36.605Z,12.67
2019-02-25T15:08:05.290Z,16.17
2019-02-25T15:10:36.118Z,15.70
2019-02-25T15:13:06.083Z,14.37
2019-02-25T15:15:34.927Z,21.03
2019-02-25T15:18:04.015Z,12.80
2019-02-25T15:20:33.127Z,17.13
2019-02-25T15:23:02.103Z,12.73
2019-02-25T15:25:31.584Z,9.47
2019-02-25T15:28:01.212Z,18.17
2019-02-25T15:30:31.115Z,12.50
2019-02-25T15:33:00.550Z,10.70
2019-02-25T15:35:32.338Z,15.70
2019-02-25T15:38:00.334Z,12.53
2019-02-25T15:40:29.351Z,12.20
2019-02-25T15:43:17.793Z,18.00
2019-02-25T15:45:44.735Z,12.20
2019-02-25T15:48:18.325Z,15.90
2019-02-25T15:50:48.563Z,15.07
2019-02-25T15:53:17.356Z,11.97
2019-02-25T15:55:46.440Z,14.03
2019-02-25T15:58:15.742Z,19.73
2019-02-25T16:00:45.241Z,11.37
2019-02-25T16:03:15.947Z,12.03
2019-02-25T16:05:44.557Z,8.20
2019-02-25T16:08:16.131Z,18.57
2019-02-25T16:10:43.768Z,17.23
2019-02-25T16:13:14.207Z,16.80
2019-02-25T16:15:43.184Z,14.37
2019-02-25T16:18:13.673Z,26.60
2019-02-25T16:20:45.726Z,16.37
2019-02-25T16:23:13.023Z,16.87
2019-02-25T16:25:42.429Z,15.13
2019-02-25T16:28:12.686Z,19.10
2019-02-25T16:30:42.419Z,12.30
2019-02-25T16:33:13.660Z,13.47
2019-02-25T16:35:43.533Z,18.23
2019-02-25T16:38:12.305Z,23.27
2019-02-25T16:40:41.097Z,18.80
2019-02-25T16:43:12.539Z,18.60
2019-02-25T16:45:41.913Z,18.37
2019-02-25T16:48:10.527Z,19.33
2019-02-25T16:50:41.127Z,15.93
2019-02-25T16:53:10.913Z,14.80
2019-02-25T16:55:40.544Z,16.23
2019-02-25T16:58:13.074Z,13.37
2019-02-25T17:00:41.755Z,15.23
2019-02-25T17:03:11.138Z,11.73
2019-02-25T17:05:42.895Z,15.30
2019-02-25T17:08:12.893Z,21.13
2019-02-25T17:10:41.697Z,18.80
2019-02-25T17:13:12.515Z,17.97
2019-02-25T17:15:40.908Z,19.60
2019-02-25T17:18:10.002Z,14.63
2019-02-25T17:20:38.794Z,15.20
2019-02-25T17:23:10.063Z,17.73
2019-02-25T17:25:40.328Z,16.93
2019-02-25T17:28:14.373Z,17.93
2019-02-25T17:30:40.653Z,17.43
2019-02-25T17:33:10.534Z,22.67
2019-02-25T17:35:40.015Z,16.53
2019-02-25T17:38:08.708Z,21.40
2019-02-25T17:40:37.311Z,18.63
2019-02-25T17:43:06.249Z,21.33
2019-02-25T17:45:36.800Z,17.37
2019-02-25T17:48:08.470Z,13.10
2019-02-25T17:50:37.571Z,15.77
2019-02-25T17:53:07.663Z,20.30
2019-02-25T17:55:37.455Z,20.93
2019-02-25T17:58:06.361Z,19.80
2019-02-25T18:00:42.253Z,20.33
2019-02-25T18:03:10.233Z,19.23
2019-02-25T18:05:40.798Z,15.23
2019-02-25T18:08:13.142Z,21.87
2019-02-25T18:10:43.194Z,19.47
2019-02-25T18:13:12.285Z,20.50
2019-02-25T18:15:41.380Z,13.20
2019-02-25T18:18:12.576Z,16.90
2019-02-25T18:20:40.581Z,19.43
2019-02-25T18:23:09.708Z,14.53
2019-02-25T18:25:39.756Z,14.93
2019-02-25T18:28:10.535Z,13.07
2019-02-25T18:30:39.223Z,18.17
2019-02-25T18:33:08.319Z,21.43
2019-02-25T18:35:38.823Z,34.73
2019-02-25T18:38:09.607Z,27.50
2019-02-25T18:40:38.746Z,18.77
2019-02-25T18:43:08.481Z,23.87
2019-02-25T18:45:38.470Z,24.47
2019-02-25T18:48:08.113Z,20.97
2019-02-25T18:50:38.965Z,22.43
2019-02-25T18:53:07.109Z,24.20
2019-02-25T18:55:35.802Z,24.27
2019-02-25T18:58:05.082Z,28.90
2019-02-25T19:00:37.283Z,23.80
2019-02-25T19:03:06.427Z,25.50
2019-02-25T19:05:35.047Z,23.23
2019-02-25T19:08:12.046Z,22.43
2019-02-25T19:10:41.270Z,22.57
2019-02-25T19:13:09.697Z,22.73
2019-02-25T19:15:38.489Z,25.73
2019-02-25T19:18:08.927Z,25.83
2019-02-25T19:20:38.861Z,24.87
2019-02-25T19:23:10.194Z,23.83
2019-02-25T19:25:38.683Z,39.67
2019-02-25T19:28:07.759Z,34.43
2019-02-25T19:30:36.324Z,26.93
2019-02-25T19:33:11.018Z,26.77
2019-02-25T19:35:37.996Z,21.33
2019-02-25T19:38:07.848Z,25.43
2019-02-25T19:40:38.404Z,26.50
2019-02-25T19:43:07.223Z,21.57
2019-02-25T19:45:36.972Z,28.77
2019-02-25T19:48:07.218Z,21.00
2019-02-25T19:50:38.521Z,25.07
2019-02-25T19:53:07.645Z,21.70
2019-02-25T19:55:38.643Z,19.77
2019-02-25T19:58:07.020Z,22.47
2019-02-25T20:00:35.977Z,23.87
2019-02-25T20:03:06.242Z,21.57
2019-02-25T20:05:38.809Z,23.43
2019-02-25T20:08:05.647Z,22.00
2019-02-25T20:10:34.848Z,26.40
2019-02-25T20:13:06.502Z,24.97
2019-02-25T20:15:37.526Z,26.40
2019-02-25T20:18:04.085Z,27.77
2019-02-25T20:20:36.545Z,23.93
2019-02-25T20:23:06.185Z,21.10
2019-02-25T20:25:35.961Z,21.03
2019-02-25T20:28:04.684Z,23.87
2019-02-25T20:30:33.527Z,19.27
2019-02-25T20:33:03.862Z,23.90
2019-02-25T20:35:32.533Z,19.87
2019-02-25T20:38:04.622Z,24.20
2019-02-25T20:40:33.056Z,22.90
2019-02-25T20:43:03.117Z,21.87
2019-02-25T20:45:35.389Z,20.97
2019-02-25T20:48:04.566Z,26.33
2019-02-25T20:50:33.243Z,19.47
2019-02-25T20:53:05.552Z,26.43
2019-02-25T20:55:33.880Z,22.80
2019-02-25T20:58:02.375Z,19.17
2019-02-25T21:00:34.840Z,18.67
2019-02-25T21:03:01.173Z,28.47
2019-02-25T21:05:29.958Z,33.90
2019-02-25T21:07:59.864Z,23.07
2019-02-25T21:10:30.585Z,21.43
2019-02-25T21:13:01.437Z,25.60
2019-02-25T21:15:29.719Z,21.63
2019-02-25T21:17:59.945Z,17.30
2019-02-25T21:20:29.718Z,19.37
2019-02-25T21:23:03.492Z,20.90
2019-02-25T21:25:30.948Z,18.63
2019-02-25T21:28:01.828Z,19.67
2019-02-25T21:30:29.915Z,19.23
2019-02-25T21:32:58.965Z,23.27
2019-02-25T21:35:30.064Z,24.17
2019-02-25T21:51:36.900Z,17.23
2019-02-25T21:54:06.781Z,20.17
2019-02-25T21:56:36.629Z,21.47
2019-02-25T21:59:06.241Z,21.50
2019-02-25T22:01:36.951Z,19.30
2019-02-25T22:04:09.274Z,26.80
2019-02-25T22:06:36.070Z,20.60
2019-02-25T22:09:06.048Z,18.63
2019-02-25T22:11:34.881Z,16.17
2019-02-25T22:14:03.679Z,19.83
2019-02-25T22:16:32.461Z,24.80
2019-02-25T22:19:01.141Z,25.20
2019-02-25T22:21:29.620Z,19.33
2019-02-25T22:24:02.659Z,19.20
2019-02-25T22:26:29.195Z,20.77
2019-02-25T22:29:00.004Z,22.90
2019-02-25T22:31:29.079Z,18.10
2019-02-25T22:33:57.665Z,22.70
2019-02-25T22:36:26.347Z,24.17
2019-02-25T22:38:56.708Z,17.13
2019-02-25T22:41:27.090Z,18.50
2019-02-25T22:43:55.666Z,21.43
2019-02-25T22:46:28.142Z,18.67
2019-02-25T22:48:54.571Z,21.77
2019-02-25T22:51:25.893Z,23.83
2019-02-25T22:53:53.478Z,21.90
2019-02-25T22:56:23.699Z,20.73
2019-02-25T22:58:53.539Z,19.03
2019-02-25T23:01:22.601Z,21.53
2019-02-25T23:03:54.523Z,19.33
2019-02-25T23:06:23.629Z,19.13
2019-02-25T23:08:53.411Z,17.57
2019-02-25T23:11:24.366Z,25.10
2019-02-25T23:13:54.771Z,17.87
2019-02-25T23:16:25.456Z,17.97
2019-02-25T23:18:53.438Z,21.27
2019-02-25T23:21:24.180Z,23.60
2019-02-25T23:23:55.546Z,22.40
2019-02-25T23:26:22.868Z,27.20
2019-02-25T23:28:53.193Z,28.10
2019-02-25T23:31:21.751Z,19.87
2019-02-25T23:33:51.339Z,26.03
2019-02-25T23:36:21.764Z,21.13
2019-02-25T23:38:52.563Z,23.07
2019-02-25T23:41:21.115Z,22.93
2019-02-25T23:43:49.799Z,19.87
2019-02-25T23:46:22.989Z,21.17
2019-02-25T23:48:48.811Z,22.57
2019-02-25T23:51:18.952Z,27.10
2019-02-25T23:53:48.712Z,24.40
2019-02-25T23:56:20.912Z,21.63
2019-02-25T23:58:49.719Z,19.27
